createdAt,value
2018-10-03T00:01:53.010Z,3.87
2018-10-03T00:04:21.565Z,3.55
2018-10-03T00:06:49.798Z,3.55
2018-10-03T00:09:18.038Z,4.25
2018-10-03T00:11:46.303Z,3.67
2018-10-03T00:14:14.566Z,3.83
2018-10-03T00:16:42.921Z,3.37
2018-10-03T00:19:11.164Z,3.50
2018-10-03T00:21:39.423Z,3.60
2018-10-03T00:24:07.675Z,4.50
2018-10-03T00:26:35.874Z,3.60
2018-10-03T00:29:04.425Z,3.47
2018-10-03T00:31:32.682Z,3.55
2018-10-03T00:34:00.969Z,3.62
2018-10-03T00:36:29.175Z,3.50
2018-10-03T00:38:57.482Z,3.25
2018-10-03T00:41:25.726Z,3.90
2018-10-03T00:43:53.954Z,3.52
2018-10-03T00:46:22.200Z,3.77
2018-10-03T00:48:50.433Z,4.30
2018-10-03T00:51:18.636Z,2.92
2018-10-03T00:53:46.836Z,4.12
2018-10-03T00:56:15.046Z,3.67
2018-10-03T00:58:43.289Z,3.85
2018-10-03T01:01:11.550Z,3.98
2018-10-03T01:03:39.930Z,3.60
2018-10-03T01:06:08.223Z,3.37
2018-10-03T01:08:36.503Z,3.60
2018-10-03T01:13:39.653Z,3.15
2018-10-03T01:16:07.950Z,4.30
2018-10-03T01:18:36.880Z,3.10
2018-10-03T01:21:05.187Z,4.40
2018-10-03T01:23:33.434Z,2.77
2018-10-03T01:26:01.772Z,3.40
2018-10-03T01:28:30.034Z,3.85
2018-10-03T01:30:58.266Z,3.83
2018-10-03T01:33:26.535Z,3.58
2018-10-03T01:35:54.769Z,3.65
2018-10-03T01:38:23.019Z,3.90
2018-10-03T01:40:51.214Z,3.92
2018-10-03T01:43:19.449Z,3.20
2018-10-03T01:45:47.742Z,3.20
2018-10-03T01:48:16.321Z,4.60
2018-10-03T01:50:44.561Z,3.12
2018-10-03T01:53:13.141Z,3.02
2018-10-03T01:55:41.607Z,4.00
2018-10-03T01:58:09.848Z,3.50
2018-10-03T02:00:38.185Z,2.55
2018-10-03T02:03:06.397Z,2.50
2018-10-03T02:05:34.658Z,3.55
2018-10-03T02:08:02.933Z,3.20
2018-10-03T02:10:31.194Z,2.33
2018-10-03T02:12:59.418Z,3.00
2018-10-03T02:15:27.690Z,3.05
2018-10-03T02:17:55.893Z,2.60
2018-10-03T02:20:24.116Z,2.00
2018-10-03T02:22:59.025Z,2.20
2018-10-03T02:25:27.281Z,2.85
2018-10-03T02:27:55.610Z,3.35
2018-10-03T02:30:23.854Z,3.10
2018-10-03T02:32:52.111Z,3.22
2018-10-03T02:35:20.322Z,2.67
2018-10-03T02:37:48.593Z,3.20
2018-10-03T02:40:16.826Z,2.40
2018-10-03T02:42:45.048Z,2.72
2018-10-03T02:45:13.301Z,2.45
2018-10-03T02:47:41.574Z,2.22
2018-10-03T02:50:09.851Z,4.30
2018-10-03T02:52:38.057Z,2.52
2018-10-03T02:55:06.294Z,2.75
2018-10-03T02:57:34.522Z,2.70
2018-10-03T03:00:02.818Z,2.50
2018-10-03T03:02:31.026Z,2.42
2018-10-03T03:04:59.221Z,2.15
2018-10-03T03:07:27.430Z,2.52
2018-10-03T03:09:55.682Z,2.77
2018-10-03T03:12:23.872Z,2.47
2018-10-03T03:14:52.165Z,3.33
2018-10-03T03:17:20.366Z,2.62
2018-10-03T03:19:48.601Z,2.27
2018-10-03T03:22:16.828Z,2.47
2018-10-03T03:24:45.058Z,3.30
2018-10-03T03:27:13.254Z,2.65
2018-10-03T03:29:41.474Z,3.08
2018-10-03T03:32:09.670Z,2.92
2018-10-03T03:34:37.974Z,2.77
2018-10-03T03:37:06.184Z,4.37
2018-10-03T03:39:34.438Z,3.17
2018-10-03T03:42:02.653Z,4.50
2018-10-03T03:44:30.871Z,3.22
2018-10-03T03:46:59.098Z,2.70
2018-10-03T03:49:27.426Z,3.10
2018-10-03T03:51:55.670Z,2.60
2018-10-03T03:54:23.867Z,2.90
2018-10-03T03:56:52.066Z,2.92
2018-10-03T03:59:20.274Z,2.70
2018-10-03T04:01:48.518Z,2.80
2018-10-03T04:04:16.732Z,2.72
2018-10-03T04:06:44.970Z,2.25
2018-10-03T04:09:13.365Z,3.55
2018-10-03T04:11:41.606Z,4.05
2018-10-03T04:14:09.874Z,3.20
2018-10-03T04:16:38.088Z,3.12
2018-10-03T04:19:06.285Z,2.47
2018-10-03T04:21:37.551Z,3.00
2018-10-03T04:24:06.740Z,2.95
2018-10-03T04:26:34.959Z,2.55
2018-10-03T04:29:03.601Z,2.75
2018-10-03T04:31:32.626Z,3.70
2018-10-03T04:34:00.895Z,2.80
2018-10-03T04:36:29.130Z,3.15
2018-10-03T04:38:57.338Z,4.03
2018-10-03T04:41:25.526Z,3.08
2018-10-03T04:43:53.982Z,3.40
2018-10-03T04:46:22.450Z,2.83
2018-10-03T04:48:50.741Z,2.72
2018-10-03T04:51:19.531Z,3.35
2018-10-03T04:53:47.835Z,3.67
2018-10-03T04:56:16.282Z,4.00
2018-10-03T04:58:44.540Z,2.95
2018-10-03T05:01:12.765Z,2.22
2018-10-03T05:03:40.957Z,3.22
2018-10-03T05:06:09.481Z,2.67
2018-10-03T05:08:37.990Z,2.80
2018-10-03T05:11:06.306Z,3.37
2018-10-03T05:13:34.495Z,2.92
2018-10-03T05:16:02.873Z,3.05
2018-10-03T05:18:31.134Z,2.92
2018-10-03T05:20:59.330Z,3.35
2018-10-03T05:23:30.294Z,3.50
2018-10-03T05:25:58.505Z,2.75
2018-10-03T05:28:26.917Z,5.97
2018-10-03T05:30:55.227Z,5.00
2018-10-03T05:33:23.588Z,3.05
2018-10-03T05:35:51.779Z,2.90
2018-10-03T05:38:20.029Z,2.60
2018-10-03T05:40:48.326Z,3.17
2018-10-03T05:43:16.857Z,2.83
2018-10-03T05:45:45.050Z,3.37
2018-10-03T05:48:13.348Z,3.67
2018-10-03T05:50:41.553Z,2.92
2018-10-03T05:53:09.866Z,4.15
2018-10-03T05:55:38.138Z,3.95
2018-10-03T05:58:06.458Z,3.12
2018-10-03T06:00:34.701Z,4.20
2018-10-03T06:03:02.656Z,3.00
2018-10-03T06:05:30.863Z,4.25
2018-10-03T06:07:59.179Z,3.55
2018-10-03T06:10:28.134Z,3.50
2018-10-03T06:13:04.877Z,3.33
2018-10-03T06:15:33.199Z,3.22
2018-10-03T06:18:01.506Z,3.25
2018-10-03T06:20:29.650Z,3.75
2018-10-03T06:22:57.875Z,3.33
2018-10-03T06:25:26.203Z,3.58
2018-10-03T06:27:57.337Z,3.90
2018-10-03T06:30:25.865Z,3.77
2018-10-03T06:32:54.820Z,3.00
2018-10-03T06:35:23.581Z,3.15
2018-10-03T06:37:52.128Z,3.40
2018-10-03T06:40:21.751Z,4.53
2018-10-03T06:42:51.174Z,3.60
2018-10-03T06:45:20.041Z,3.27
2018-10-03T06:47:48.872Z,2.90
2018-10-03T06:50:17.914Z,2.75
2018-10-03T06:52:46.386Z,3.50
2018-10-03T06:55:16.433Z,2.90
2018-10-03T06:57:44.878Z,3.55
2018-10-03T07:00:13.865Z,3.17
2018-10-03T07:02:42.402Z,3.52
2018-10-03T07:05:11.803Z,3.37
2018-10-03T07:07:39.830Z,6.70
2018-10-03T07:10:08.107Z,3.52
2018-10-03T07:12:36.434Z,2.83
2018-10-03T07:15:05.497Z,2.45
2018-10-03T07:17:33.767Z,2.65
2018-10-03T07:20:02.113Z,2.92
2018-10-03T07:22:30.122Z,3.60
2018-10-03T07:24:58.326Z,3.22
2018-10-03T07:27:26.585Z,3.25
2018-10-03T07:29:54.635Z,3.87
2018-10-03T07:32:23.042Z,2.95
2018-10-03T07:34:51.353Z,3.12
2018-10-03T07:37:19.675Z,4.20
2018-10-03T07:39:47.874Z,2.92
2018-10-03T07:42:16.272Z,3.00
2018-10-03T07:44:44.540Z,3.40
2018-10-03T07:47:12.774Z,2.90
2018-10-03T07:49:41.022Z,3.20
2018-10-03T07:52:09.238Z,2.80
2018-10-03T07:54:37.508Z,2.72
2018-10-03T07:57:05.792Z,3.40
2018-10-03T07:59:34.069Z,3.85
2018-10-03T08:02:02.374Z,2.65
2018-10-03T08:04:30.593Z,2.47
2018-10-03T08:06:58.857Z,2.52
2018-10-03T08:09:27.105Z,2.60
2018-10-03T08:11:55.415Z,3.12
2018-10-03T08:14:23.661Z,2.17
2018-10-03T08:16:51.897Z,2.90
2018-10-03T08:19:20.110Z,2.77
2018-10-03T08:21:48.457Z,2.33
2018-10-03T08:24:16.744Z,2.40
2018-10-03T08:26:45.023Z,2.98
2018-10-03T08:29:13.385Z,2.17
2018-10-03T08:31:41.607Z,2.22
2018-10-03T08:34:09.845Z,2.43
2018-10-03T08:36:38.077Z,2.67
2018-10-03T08:39:09.257Z,2.72
2018-10-03T08:41:37.541Z,2.60
2018-10-03T08:44:06.141Z,2.23
2018-10-03T08:46:34.373Z,2.60
2018-10-03T08:49:02.678Z,3.10
2018-10-03T08:51:30.982Z,2.87
2018-10-03T08:53:59.295Z,2.60
2018-10-03T08:56:27.619Z,2.03
2018-10-03T08:58:55.945Z,2.13
2018-10-03T09:01:24.329Z,2.27
2018-10-03T09:03:52.604Z,1.93
2018-10-03T09:06:20.936Z,2.43
2018-10-03T09:08:49.290Z,2.40
2018-10-03T09:11:18.219Z,1.80
2018-10-03T09:13:46.473Z,2.23
2018-10-03T09:16:14.682Z,2.27
2018-10-03T09:18:42.941Z,2.70
2018-10-03T09:21:11.248Z,2.27
2018-10-03T09:23:39.457Z,2.80
2018-10-03T09:26:07.721Z,1.93
2018-10-03T09:28:35.980Z,2.33
2018-10-03T09:31:04.256Z,2.13
2018-10-03T09:33:32.480Z,1.93
2018-10-03T09:36:00.691Z,2.37
2018-10-03T09:38:28.902Z,2.60
2018-10-03T09:40:57.998Z,2.77
2018-10-03T09:43:26.284Z,2.33
2018-10-03T09:45:54.227Z,2.00
2018-10-03T09:48:22.441Z,2.33
2018-10-03T09:50:50.697Z,2.30
2018-10-03T09:53:19.021Z,2.47
2018-10-03T09:55:47.316Z,1.93
2018-10-03T09:58:15.527Z,2.47
2018-10-03T10:00:48.943Z,2.57
2018-10-03T10:03:17.330Z,2.30
2018-10-03T10:05:45.558Z,2.07
2018-10-03T10:08:13.521Z,2.13
2018-10-03T10:10:41.766Z,3.07
2018-10-03T10:13:09.968Z,2.20
2018-10-03T10:15:38.425Z,2.10
2018-10-03T10:18:06.731Z,2.23
2018-10-03T10:20:35.035Z,3.17
2018-10-03T10:23:03.186Z,1.93
2018-10-03T10:25:31.407Z,2.20
2018-10-03T10:27:59.761Z,1.67
2018-10-03T10:30:28.061Z,2.47
2018-10-03T10:32:56.459Z,1.73
2018-10-03T10:35:24.750Z,1.90
2018-10-03T10:37:53.089Z,2.20
2018-10-03T10:40:21.442Z,2.03
2018-10-03T10:42:49.729Z,3.07
2018-10-03T10:45:18.116Z,1.67
2018-10-03T10:47:46.441Z,2.60
2018-10-03T10:50:14.550Z,2.20
2018-10-03T10:52:42.785Z,2.33
2018-10-03T10:55:11.118Z,2.43
2018-10-03T10:57:39.749Z,1.70
2018-10-03T11:00:08.041Z,2.00
2018-10-03T11:02:36.254Z,3.30
2018-10-03T11:05:04.572Z,2.97
2018-10-03T11:07:32.813Z,2.80
2018-10-03T11:10:00.837Z,2.57
2018-10-03T11:12:29.065Z,2.70
2018-10-03T11:14:57.418Z,1.90
2018-10-03T11:17:25.645Z,2.27
2018-10-03T11:19:53.878Z,2.70
2018-10-03T11:22:22.223Z,2.43
2018-10-03T11:24:50.646Z,2.30
2018-10-03T11:27:19.005Z,1.90
2018-10-03T11:29:47.364Z,2.63
2018-10-03T11:32:15.635Z,3.00
2018-10-03T11:34:43.917Z,2.00
2018-10-03T11:37:18.907Z,1.90
2018-10-03T11:39:47.174Z,2.00
2018-10-03T11:42:15.383Z,2.70
2018-10-03T11:44:44.413Z,3.27
2018-10-03T11:47:12.634Z,1.53
2018-10-03T11:49:40.893Z,1.80
2018-10-03T11:52:09.108Z,2.43
2018-10-03T11:54:37.342Z,2.17
2018-10-03T11:57:05.736Z,2.13
2018-10-03T11:59:33.971Z,2.43
2018-10-03T12:02:02.207Z,2.70
2018-10-03T12:04:30.183Z,1.50
2018-10-03T12:06:58.462Z,2.30
2018-10-03T12:09:26.763Z,2.47
2018-10-03T12:11:54.905Z,2.00
2018-10-03T12:14:23.231Z,2.17
2018-10-03T12:16:51.499Z,2.57
2018-10-03T12:19:19.757Z,2.70
2018-10-03T12:21:48.053Z,2.23
2018-10-03T12:24:16.258Z,2.30
2018-10-03T12:26:44.648Z,2.73
2018-10-03T12:29:12.919Z,2.40
2018-10-03T12:31:43.082Z,2.27
2018-10-03T12:34:11.376Z,2.20
2018-10-03T12:36:40.001Z,1.90
2018-10-03T12:39:09.582Z,2.03
2018-10-03T12:41:38.541Z,2.40
2018-10-03T12:44:07.534Z,2.87
2018-10-03T12:46:36.093Z,2.60
2018-10-03T12:49:04.345Z,1.87
2018-10-03T12:51:32.725Z,1.77
2018-10-03T12:54:01.076Z,2.30
2018-10-03T12:56:29.382Z,1.90
2018-10-03T12:58:57.646Z,2.53
2018-10-03T13:01:25.987Z,2.23
2018-10-03T13:03:54.530Z,2.00
2018-10-03T13:06:23.021Z,1.90
2018-10-03T13:08:51.294Z,2.10
2018-10-03T13:11:19.659Z,2.60
2018-10-03T13:13:48.887Z,1.60
2018-10-03T13:16:17.206Z,1.90
2018-10-03T13:18:45.417Z,2.30
2018-10-03T13:21:13.632Z,2.50
2018-10-03T13:23:42.162Z,2.53
2018-10-03T13:26:10.383Z,2.25
2018-10-03T13:28:38.601Z,2.10
2018-10-03T13:31:06.640Z,2.53
2018-10-03T13:33:34.982Z,2.90
2018-10-03T13:36:03.310Z,2.20
2018-10-03T13:38:31.899Z,2.20
2018-10-03T13:41:00.424Z,2.93
2018-10-03T13:43:28.649Z,2.13
2018-10-03T13:45:56.862Z,2.10
2018-10-03T13:48:25.083Z,2.37
2018-10-03T13:50:53.386Z,2.57
2018-10-03T13:53:21.675Z,2.43
2018-10-03T13:55:49.938Z,2.60
2018-10-03T13:58:18.160Z,2.03
2018-10-03T14:00:46.539Z,2.33
2018-10-03T14:03:14.852Z,2.43
2018-10-03T14:05:43.052Z,2.57
2018-10-03T14:08:11.350Z,1.90
2018-10-03T14:10:39.694Z,1.83
2018-10-03T14:13:08.004Z,2.10
2018-10-03T14:15:36.317Z,2.80
2018-10-03T14:18:04.561Z,2.03
2018-10-03T14:20:32.978Z,2.10
2018-10-03T14:23:01.211Z,1.90
2018-10-03T14:25:29.635Z,2.77
2018-10-03T14:27:57.916Z,2.60
2018-10-03T14:30:26.147Z,2.60
2018-10-03T14:32:54.441Z,2.13
2018-10-03T14:35:22.632Z,2.33
2018-10-03T14:37:51.100Z,2.60
2018-10-03T14:40:19.409Z,1.80
2018-10-03T14:42:47.725Z,2.30
2018-10-03T14:45:15.989Z,1.60
2018-10-03T14:47:44.351Z,1.93
2018-10-03T14:50:12.558Z,2.90
2018-10-03T14:52:40.853Z,2.10
2018-10-03T14:55:09.101Z,2.70
2018-10-03T14:57:37.354Z,2.63
2018-10-03T15:00:06.302Z,2.30
2018-10-03T15:02:34.549Z,2.57
2018-10-03T15:05:02.880Z,2.70
2018-10-03T15:07:31.201Z,2.00
2018-10-03T15:09:59.607Z,2.47
2018-10-03T15:12:27.881Z,2.83
2018-10-03T15:14:56.119Z,3.07
2018-10-03T15:17:24.388Z,3.23
2018-10-03T15:19:52.682Z,2.30
2018-10-03T15:22:21.066Z,3.33
2018-10-03T15:24:49.254Z,2.83
2018-10-03T15:27:17.562Z,2.50
2018-10-03T15:29:45.845Z,2.60
2018-10-03T15:32:14.030Z,2.52
2018-10-03T15:34:42.286Z,2.63
2018-10-03T15:37:10.513Z,2.37
2018-10-03T15:39:38.772Z,2.53
2018-10-03T15:42:07.051Z,2.87
2018-10-03T15:44:35.215Z,3.50
2018-10-03T15:47:03.490Z,2.50
2018-10-03T15:49:31.710Z,2.60
2018-10-03T15:51:59.993Z,2.80
2018-10-03T15:54:28.263Z,2.67
2018-10-03T15:56:56.634Z,2.60
2018-10-03T15:59:24.901Z,2.95
2018-10-03T16:01:53.233Z,2.42
2018-10-03T16:04:21.666Z,2.62
2018-10-03T16:06:49.914Z,2.00
2018-10-03T16:09:18.235Z,2.33
2018-10-03T16:11:46.531Z,3.12
2018-10-03T16:14:14.839Z,3.42
2018-10-03T16:16:43.494Z,2.10
2018-10-03T16:19:11.819Z,2.95
2018-10-03T16:21:40.266Z,2.62
2018-10-03T16:24:08.550Z,2.95
2018-10-03T16:26:36.822Z,2.12
2018-10-03T16:29:05.102Z,2.15
2018-10-03T16:31:33.487Z,3.27
2018-10-03T16:34:01.827Z,3.15
2018-10-03T16:36:30.137Z,4.22
2018-10-03T16:38:58.504Z,2.95
2018-10-03T16:41:26.617Z,2.77
2018-10-03T16:43:55.090Z,2.50
2018-10-03T16:46:23.330Z,2.70
2018-10-03T16:48:51.542Z,2.65
2018-10-03T16:51:19.830Z,3.25
2018-10-03T16:53:48.058Z,2.40
2018-10-03T16:56:16.353Z,2.90
2018-10-03T16:58:44.598Z,3.12
2018-10-03T17:01:12.926Z,3.25
2018-10-03T17:03:41.264Z,3.15
2018-10-03T17:06:09.549Z,3.92
2018-10-03T17:08:37.869Z,3.40
2018-10-03T17:11:06.126Z,3.27
2018-10-03T17:13:34.376Z,3.87
2018-10-03T17:16:02.707Z,3.50
2018-10-03T17:18:31.272Z,3.22
2018-10-03T17:20:59.510Z,3.70
2018-10-03T17:23:27.761Z,3.15
2018-10-03T17:25:56.037Z,3.72
2018-10-03T17:28:24.269Z,4.45
2018-10-03T17:30:52.550Z,3.65
2018-10-03T17:33:20.767Z,3.10
2018-10-03T17:35:48.989Z,3.67
2018-10-03T17:38:17.277Z,3.60
2018-10-03T17:40:45.502Z,3.08
2018-10-03T17:43:13.716Z,3.35
2018-10-03T17:45:42.040Z,3.45
2018-10-03T17:48:10.396Z,4.20
2018-10-03T17:50:38.621Z,3.60
2018-10-03T17:53:07.027Z,3.77
2018-10-03T17:55:35.296Z,3.80
2018-10-03T17:58:03.596Z,3.45
2018-10-03T18:00:31.915Z,3.72
2018-10-03T18:03:00.210Z,3.77
2018-10-03T18:05:28.507Z,3.47
2018-10-03T18:07:56.774Z,5.00
2018-10-03T18:10:25.023Z,3.83
2018-10-03T18:12:53.241Z,3.77
2018-10-03T18:15:21.465Z,3.87
2018-10-03T18:17:49.707Z,3.90
2018-10-03T18:20:18.020Z,3.27
2018-10-03T18:22:46.322Z,2.98
2018-10-03T18:25:14.693Z,4.37
2018-10-03T18:27:42.989Z,5.28
2018-10-03T18:30:11.258Z,3.80
2018-10-03T18:32:39.499Z,3.00
2018-10-03T18:35:08.009Z,3.60
2018-10-03T18:37:36.294Z,3.98
2018-10-03T18:40:04.619Z,4.20
2018-10-03T18:42:32.892Z,3.10
2018-10-03T18:45:01.401Z,3.40
2018-10-03T18:47:29.514Z,4.10
2018-10-03T18:49:57.946Z,4.00
2018-10-03T18:52:26.211Z,3.60
2018-10-03T18:54:54.464Z,4.20
2018-10-03T18:57:22.725Z,4.60
2018-10-03T18:59:51.052Z,4.08
2018-10-03T19:02:19.372Z,3.20
2018-10-03T19:04:47.726Z,3.77
2018-10-03T19:07:16.700Z,3.98
2018-10-03T19:09:44.972Z,5.40
2018-10-03T19:12:13.361Z,6.25
2018-10-03T19:14:41.521Z,5.40
2018-10-03T19:17:09.902Z,4.50
2018-10-03T19:19:38.175Z,4.35
2018-10-03T19:22:06.490Z,4.30
2018-10-03T19:24:34.891Z,4.62
2018-10-03T19:27:03.129Z,3.83
2018-10-03T19:29:31.399Z,3.15
2018-10-03T19:31:59.759Z,4.33
2018-10-03T19:34:28.031Z,4.12
2018-10-03T19:36:56.320Z,4.28
2018-10-03T19:39:24.814Z,5.17
2018-10-03T19:41:53.051Z,4.75
2018-10-03T19:44:21.316Z,5.60
2018-10-03T19:46:49.574Z,4.60
2018-10-03T19:49:17.802Z,4.75
2018-10-03T19:51:46.127Z,4.00
2018-10-03T19:54:14.360Z,5.90
2018-10-03T19:56:42.665Z,5.65
2018-10-03T19:59:10.985Z,6.17
2018-10-03T20:01:39.846Z,5.03
2018-10-03T20:04:08.112Z,5.20
2018-10-03T20:06:36.454Z,5.70
2018-10-03T20:09:06.846Z,5.55
2018-10-03T20:11:35.142Z,5.03
2018-10-03T20:14:03.469Z,6.47
2018-10-03T20:16:31.776Z,5.30
2018-10-03T20:19:00.012Z,4.85
2018-10-03T20:21:28.359Z,4.55
2018-10-03T20:23:56.600Z,5.47
2018-10-03T20:26:24.955Z,4.40
2018-10-03T20:28:53.159Z,4.35
2018-10-03T20:31:21.432Z,4.15
2018-10-03T20:33:49.824Z,4.17
2018-10-03T20:36:18.093Z,5.40
2018-10-03T20:38:46.359Z,4.53
2018-10-03T20:41:14.653Z,3.98
2018-10-03T20:43:42.869Z,4.47
2018-10-03T20:46:11.982Z,4.75
2018-10-03T20:48:40.266Z,5.12
2018-10-03T20:51:08.626Z,4.83
2018-10-03T20:53:36.964Z,5.08
2018-10-03T20:56:05.243Z,5.28
2018-10-03T20:58:33.477Z,4.40
2018-10-03T21:01:01.690Z,4.30
2018-10-03T21:03:29.976Z,3.67
2018-10-03T21:05:58.217Z,4.22
2018-10-03T21:08:26.456Z,4.12
2018-10-03T21:10:54.750Z,4.97
2018-10-03T21:13:23.033Z,5.28
2018-10-03T21:15:51.335Z,5.65
2018-10-03T21:18:19.770Z,4.87
2018-10-03T21:20:48.007Z,4.42
2018-10-03T21:23:16.238Z,4.58
2018-10-03T21:25:44.645Z,3.72
2018-10-03T21:28:12.933Z,3.92
2018-10-03T21:30:41.210Z,4.40
2018-10-03T21:33:09.508Z,4.78
2018-10-03T21:35:37.748Z,4.40
2018-10-03T21:38:06.401Z,4.28
2018-10-03T21:40:34.628Z,4.72
2018-10-03T21:43:02.961Z,4.83
2018-10-03T21:45:31.222Z,4.05
2018-10-03T21:47:59.467Z,5.00
2018-10-03T21:50:27.742Z,4.67
2018-10-03T21:52:55.977Z,4.87
2018-10-03T21:55:24.294Z,4.50
2018-10-03T21:57:52.706Z,5.03
2018-10-03T22:00:20.942Z,4.83
2018-10-03T22:02:49.154Z,5.53
2018-10-03T22:05:17.370Z,4.67
2018-10-03T22:07:45.593Z,4.35
2018-10-03T22:10:13.869Z,4.35
2018-10-03T22:12:42.190Z,3.87
2018-10-03T22:15:10.421Z,5.42
2018-10-03T22:17:38.699Z,4.60
2018-10-03T22:20:07.300Z,5.00
2018-10-03T22:22:35.586Z,4.17
2018-10-03T22:25:03.934Z,4.65
2018-10-03T22:27:32.272Z,5.10
2018-10-03T22:30:00.549Z,4.50
2018-10-03T22:32:28.829Z,4.85
2018-10-03T22:34:57.057Z,5.70
2018-10-03T22:37:25.666Z,4.95
2018-10-03T22:39:56.043Z,4.67
2018-10-03T22:42:24.345Z,4.42
2018-10-03T22:44:52.653Z,5.60
2018-10-03T22:47:21.404Z,5.85
2018-10-03T22:49:49.916Z,5.10
2018-10-03T22:52:18.157Z,4.90
2018-10-03T22:54:46.433Z,6.15
2018-10-03T22:57:14.675Z,5.50
2018-10-03T22:59:42.894Z,5.45
2018-10-03T23:02:11.123Z,5.87
2018-10-03T23:04:39.384Z,6.10
2018-10-03T23:07:07.805Z,5.37
2018-10-03T23:09:36.023Z,5.17
2018-10-03T23:12:04.638Z,6.40
2018-10-03T23:14:33.405Z,6.25
2018-10-03T23:17:01.629Z,5.37
2018-10-03T23:19:29.962Z,5.55
2018-10-03T23:21:58.281Z,5.22
2018-10-03T23:24:26.505Z,6.37
2018-10-03T23:26:54.722Z,6.35
2018-10-03T23:29:22.973Z,5.67
2018-10-03T23:31:51.374Z,6.85
2018-10-03T23:34:19.633Z,6.22
2018-10-03T23:36:47.867Z,6.53
2018-10-03T23:39:16.320Z,7.00
2018-10-03T23:41:44.558Z,6.25
2018-10-03T23:44:12.796Z,5.65
2018-10-03T23:46:41.038Z,6.67
2018-10-03T23:49:09.294Z,7.20
2018-10-03T23:51:37.566Z,6.70
2018-10-03T23:54:05.856Z,6.50
2018-10-03T23:56:34.071Z,6.25
2018-10-03T23:59:02.291Z,6.67
